NCAR-RAP Real-Time Weather Data

Output produced by METARs form (07 March 2021  06:14 UTC)
found at http://weather.rap.ucar.edu/surface/
 
KABR 070553Z AUTO 16022G31KT 10SM CLR 08/02 A2984 RMK AO2 PK WND 16031/0537 SLP109 T00780022 10106 20072 401501050 58021
KABR 070453Z AUTO 15020G30KT 10SM CLR 08/03 A2987 RMK AO2 PK WND 16031/0414 SLP120 T00780028
KABR 070353Z AUTO 15019G28KT 10SM CLR 08/03 A2989 RMK AO2 PK WND 15028/0342 SLP129 T00780028
KABR 070253Z AUTO 14017KT 10SM CLR 08/03 A2990 RMK AO2 PK WND 14029/0204 SLP136 T00780028 58025
KABR 070153Z AUTO 13013KT 10SM CLR 08/03 A2993 RMK AO2 SLP148 T00780033
KABR 070053Z AUTO 13010KT 10SM CLR 08/03 A2996 RMK AO2 SLP157 T00830033
KABR 062353Z AUTO 14012KT 10SM CLR 11/04 A2998 RMK AO2 PK WND 14028/2259 SLP164 T01060039 10150 20106 56020
KABR 062253Z AUTO 14018G27KT 10SM CLR 13/03 A2999 RMK AO2 PK WND 14029/2214 SLP166 T01330033
KABR 062153Z AUTO 13015G27KT 10SM CLR 14/03 A3001 RMK AO2 PK WND 14029/2129 SLP172 T01390028
KABR 062053Z AUTO 13016G25KT 10SM CLR 14/03 A3004 RMK AO2 PK WND 14026/2041 SLP182 T01440028 58031
KABR 061953Z AUTO 14020G26KT 10SM CLR 14/02 A3008 RMK AO2 PK WND 14026/1952 SLP195 T01390022
KABR 061853Z AUTO 14016G22KT 10SM CLR 14/03 A3011 RMK AO2 SLP207 T01390028
KABR 061753Z AUTO 15013KT 10SM CLR 12/03 A3014 RMK AO2 SLP215 I6000 T01220033 10122 21044 58019
KABR 061653Z AUTO 14010KT 9SM CLR 09/03 A3016 RMK AO2 SLP224 T00940033
KABR 061553Z AUTO 16009KT 6SM HZ CLR 07/03 A3018 RMK AO2 SLP231 T00670028 $
KABR 061453Z AUTO 13005KT 5SM BR CLR 03/01 A3019 RMK AO2 SLP237 I3000 T00280006 57004 $
KABR 061404Z AUTO 10005KT 3SM BR CLR 00/M02 A3019 RMK AO2 T00001017 $
KABR 061353Z AUTO 07005KT 2 1/2SM BR CLR M01/M03 A3019 RMK AO2 SLP238 T10111028 $
KABR 061328Z AUTO 05005KT 2 1/2SM BR FEW003 M04/M06 A3021 RMK AO2 T10391056 $
KABR 061317Z AUTO 06005KT 1 1/2SM BR SCT003 M04/M06 A3021 RMK AO2 T10441061 $
KABR 061315Z AUTO 05005KT 1SM BR VV003 M04/M06 A3021 RMK AO2 T10441061 $